createdAt,value
2023-01-05T00:01:55.915Z,12.57
2023-01-05T00:04:24.386Z,13.40
2023-01-05T00:06:55.484Z,13.57
2023-01-05T00:09:23.660Z,13.87
2023-01-05T00:12:10.507Z,14.73
2023-01-05T00:14:56.017Z,14.83
2023-01-05T00:17:41.976Z,13.47
2023-01-05T00:20:32.655Z,14.23
2023-01-05T00:23:00.634Z,14.63
2023-01-05T00:25:29.469Z,15.20
2023-01-05T00:27:59.282Z,15.87
2023-01-05T00:30:28.616Z,15.03
2023-01-05T00:32:56.590Z,16.97
2023-01-05T00:35:24.963Z,15.70
2023-01-05T00:37:53.024Z,15.47
2023-01-05T00:40:21.924Z,14.87
2023-01-05T00:42:50.401Z,15.17
2023-01-05T00:45:22.203Z,15.67
2023-01-05T00:47:51.935Z,16.90
2023-01-05T00:50:20.561Z,15.10
2023-01-05T00:52:48.535Z,15.57
2023-01-05T00:55:16.699Z,15.33
2023-01-05T00:57:45.509Z,16.13
2023-01-05T01:00:14.937Z,14.87
2023-01-05T01:02:44.398Z,15.10
2023-01-05T01:05:12.784Z,15.47
2023-01-05T01:07:40.757Z,14.70
2023-01-05T01:10:09.376Z,15.57
2023-01-05T01:12:37.540Z,15.27
2023-01-05T01:15:05.983Z,15.17
2023-01-05T01:17:34.066Z,14.73
2023-01-05T01:20:03.590Z,15.07
2023-01-05T01:22:31.539Z,14.73
2023-01-05T01:24:59.445Z,15.80
2023-01-05T01:27:27.430Z,16.10
2023-01-05T01:29:55.377Z,15.33
2023-01-05T01:32:24.567Z,15.70
2023-01-05T01:34:52.865Z,15.90
2023-01-05T01:37:22.194Z,15.43
2023-01-05T01:39:50.144Z,14.73
2023-01-05T01:42:18.419Z,14.77
2023-01-05T01:44:50.549Z,14.80
2023-01-05T01:47:21.602Z,13.37
2023-01-05T01:49:49.832Z,15.57
2023-01-05T01:52:18.152Z,14.13
2023-01-05T01:54:48.221Z,14.20
2023-01-05T01:57:16.583Z,13.97
2023-01-05T01:59:44.659Z,14.77
2023-01-05T02:02:13.632Z,14.37
2023-01-05T02:04:41.986Z,14.50
2023-01-05T02:07:11.286Z,14.17
2023-01-05T02:09:39.523Z,14.43
2023-01-05T02:12:16.884Z,14.60
2023-01-05T02:14:50.910Z,14.03
2023-01-05T02:17:24.778Z,13.93
2023-01-05T02:20:11.474Z,13.00
2023-01-05T02:22:55.878Z,12.50
2023-01-05T02:25:34.543Z,14.00
2023-01-05T02:28:11.929Z,14.43
2023-01-05T02:30:59.726Z,12.87
2023-01-05T02:33:30.964Z,13.60
2023-01-05T02:36:00.251Z,13.17
2023-01-05T02:38:33.346Z,13.17
2023-01-05T02:41:05.678Z,13.03
2023-01-05T02:43:33.673Z,13.33
2023-01-05T02:46:03.291Z,12.77
2023-01-05T02:48:31.297Z,13.30
2023-01-05T02:51:02.329Z,11.97
2023-01-05T02:53:32.752Z,13.17
2023-01-05T02:56:03.261Z,13.50
2023-01-05T02:58:33.326Z,12.77
2023-01-05T03:01:04.990Z,13.20
2023-01-05T03:03:36.097Z,13.77
2023-01-05T03:06:05.720Z,12.27
2023-01-05T03:08:34.637Z,13.87
2023-01-05T03:11:21.618Z,13.20
2023-01-05T03:13:52.274Z,12.70
2023-01-05T03:16:24.239Z,12.93
2023-01-05T03:19:14.035Z,12.40
2023-01-05T03:21:59.657Z,13.77
2023-01-05T03:24:45.248Z,12.70
2023-01-05T03:27:31.295Z,12.40
2023-01-05T03:30:16.738Z,13.93
2023-01-05T03:33:07.389Z,12.30
2023-01-05T03:35:38.741Z,13.00
2023-01-05T03:38:17.625Z,12.63
2023-01-05T03:40:47.006Z,13.33
2023-01-05T03:43:15.096Z,13.17
2023-01-05T03:45:44.681Z,13.00
2023-01-05T03:48:14.069Z,13.13
2023-01-05T03:50:42.035Z,12.63
2023-01-05T03:53:10.005Z,13.00
2023-01-05T03:55:37.975Z,13.50
2023-01-05T03:58:05.958Z,12.37
2023-01-05T04:00:34.034Z,13.13
2023-01-05T04:03:02.107Z,12.43
2023-01-05T04:05:31.590Z,12.43
2023-01-05T04:07:59.605Z,13.03
2023-01-05T04:10:27.580Z,12.70
2023-01-05T04:12:55.490Z,11.87
2023-01-05T04:15:23.495Z,12.53
2023-01-05T04:17:51.505Z,11.53
2023-01-05T04:20:19.452Z,12.53
2023-01-05T04:22:48.805Z,12.47
2023-01-05T04:25:16.872Z,12.67
2023-01-05T04:27:44.848Z,13.20
2023-01-05T04:30:13.113Z,13.23
2023-01-05T04:32:41.130Z,13.13
2023-01-05T04:35:11.472Z,13.33
2023-01-05T04:37:39.827Z,12.83
2023-01-05T04:40:10.034Z,13.10
2023-01-05T04:42:38.052Z,12.83
2023-01-05T04:45:06.943Z,12.57
2023-01-05T04:47:34.909Z,13.30
2023-01-05T04:50:02.883Z,13.10
2023-01-05T04:52:30.981Z,12.87
2023-01-05T04:54:59.485Z,12.83
2023-01-05T04:57:28.852Z,13.00
2023-01-05T04:59:56.776Z,12.80
2023-01-05T05:02:25.071Z,13.77
2023-01-05T05:04:53.156Z,13.83
2023-01-05T05:07:21.135Z,14.10
2023-01-05T05:09:49.243Z,12.20
2023-01-05T05:12:20.555Z,13.10
2023-01-05T05:14:50.030Z,13.43
2023-01-05T05:17:18.212Z,13.10
2023-01-05T05:19:46.187Z,11.70
2023-01-05T05:22:14.196Z,12.73
2023-01-05T05:24:42.307Z,12.37
2023-01-05T05:27:10.283Z,13.00
2023-01-05T05:29:38.267Z,13.07
2023-01-05T05:32:07.869Z,12.53
2023-01-05T05:34:35.893Z,13.17
2023-01-05T05:37:03.892Z,12.57
2023-01-05T05:39:31.819Z,12.43
2023-01-05T05:41:59.886Z,12.97
2023-01-05T05:44:27.946Z,13.27
2023-01-05T05:46:55.908Z,19.23
2023-01-05T05:49:25.402Z,14.23
2023-01-05T05:51:53.337Z,13.27
2023-01-05T05:54:21.441Z,12.10
2023-01-05T05:56:49.413Z,13.10
2023-01-05T05:59:17.440Z,13.57
2023-01-05T06:01:45.675Z,11.87
2023-01-05T06:04:13.705Z,13.23
2023-01-05T06:06:43.064Z,12.80
2023-01-05T06:09:11.121Z,12.73
2023-01-05T06:11:39.150Z,12.63
2023-01-05T06:14:07.831Z,12.77
2023-01-05T06:16:35.963Z,12.97
2023-01-05T06:19:04.020Z,12.90
2023-01-05T06:21:32.009Z,12.80
2023-01-05T06:24:01.514Z,12.67
2023-01-05T06:26:29.487Z,12.40
2023-01-05T06:28:57.437Z,12.20
2023-01-05T06:31:25.462Z,12.03
2023-01-05T06:33:53.470Z,13.23
2023-01-05T06:36:21.552Z,11.87
2023-01-05T06:38:49.570Z,12.97
2023-01-05T06:41:18.959Z,12.33
2023-01-05T06:43:46.973Z,12.30
2023-01-05T06:46:15.073Z,12.77
2023-01-05T06:48:43.128Z,13.13
2023-01-05T06:51:11.157Z,12.67
2023-01-05T06:53:39.203Z,14.13
2023-01-05T06:56:07.377Z,13.80
2023-01-05T06:58:36.774Z,13.07
2023-01-05T07:01:04.923Z,13.70
2023-01-05T07:03:33.144Z,12.87
2023-01-05T07:06:01.266Z,13.33
2023-01-05T07:08:29.367Z,12.80
2023-01-05T07:10:57.458Z,12.87
2023-01-05T07:13:26.004Z,12.97
2023-01-05T07:15:58.194Z,12.93
2023-01-05T07:18:29.082Z,13.93
2023-01-05T07:20:57.052Z,13.60
2023-01-05T07:23:25.091Z,13.27
2023-01-05T07:25:53.072Z,12.53
2023-01-05T07:28:20.991Z,12.60
2023-01-05T07:30:52.610Z,13.20
2023-01-05T07:33:22.181Z,12.40
2023-01-05T07:35:50.267Z,13.67
2023-01-05T07:38:18.268Z,11.93
2023-01-05T07:40:46.487Z,13.30
2023-01-05T07:43:14.457Z,13.23
2023-01-05T07:45:42.480Z,12.63
2023-01-05T07:48:10.739Z,11.73
2023-01-05T07:50:40.192Z,12.70
2023-01-05T07:53:08.171Z,13.80
2023-01-05T07:55:36.159Z,14.30
2023-01-05T07:58:07.789Z,13.90
2023-01-05T08:00:36.194Z,13.67
2023-01-05T08:03:04.534Z,13.40
2023-01-05T08:05:34.908Z,14.73
2023-01-05T08:08:04.513Z,13.13
2023-01-05T08:10:32.575Z,12.10
2023-01-05T08:13:21.992Z,13.93
2023-01-05T08:15:51.564Z,13.17
2023-01-05T08:18:19.895Z,13.93
2023-01-05T08:20:51.339Z,14.13
2023-01-05T08:23:25.776Z,13.93
2023-01-05T08:25:54.763Z,15.63
2023-01-05T08:28:22.743Z,14.77
2023-01-05T08:30:50.687Z,15.00
2023-01-05T08:33:18.824Z,15.10
2023-01-05T08:35:47.134Z,15.10
2023-01-05T08:38:15.281Z,14.60
2023-01-05T08:40:44.907Z,14.43
2023-01-05T08:43:12.957Z,13.90
2023-01-05T08:45:40.963Z,15.53
2023-01-05T08:48:09.459Z,14.83
2023-01-05T08:50:38.772Z,14.47
2023-01-05T08:53:06.887Z,14.57
2023-01-05T08:55:38.004Z,14.17
2023-01-05T08:58:07.724Z,14.23
2023-01-05T09:00:36.165Z,15.40
2023-01-05T09:03:04.355Z,16.10
2023-01-05T09:05:32.450Z,15.43
2023-01-05T09:08:00.428Z,15.80
2023-01-05T09:10:28.688Z,16.63
2023-01-05T09:12:56.719Z,14.33
2023-01-05T09:15:26.670Z,14.37
2023-01-05T09:17:54.887Z,14.37
2023-01-05T09:20:23.071Z,14.70
2023-01-05T09:22:51.059Z,13.70
2023-01-05T09:25:19.083Z,14.53
2023-01-05T09:27:47.042Z,13.70
2023-01-05T09:30:17.551Z,13.90
2023-01-05T09:32:47.076Z,13.73
2023-01-05T09:35:15.016Z,14.27
2023-01-05T09:37:43.866Z,15.23
2023-01-05T09:40:13.759Z,14.57
2023-01-05T09:42:44.960Z,14.53
2023-01-05T09:45:14.280Z,14.97
2023-01-05T09:47:45.889Z,14.60
2023-01-05T09:50:20.172Z,13.67
2023-01-05T09:52:48.596Z,15.20
2023-01-05T09:55:18.015Z,14.57
2023-01-05T09:57:51.541Z,15.03
2023-01-05T10:00:19.752Z,14.67
2023-01-05T10:02:50.546Z,13.80
2023-01-05T10:05:20.660Z,13.07
2023-01-05T10:07:51.531Z,13.40
2023-01-05T10:10:30.520Z,14.13
2023-01-05T10:13:06.569Z,13.73
2023-01-05T10:15:43.599Z,13.47
2023-01-05T10:18:13.414Z,14.40
2023-01-05T10:20:56.184Z,14.07
2023-01-05T10:23:33.739Z,14.70
2023-01-05T10:26:12.156Z,15.17
2023-01-05T10:28:43.150Z,15.37
2023-01-05T10:31:20.244Z,15.43
2023-01-05T10:33:56.806Z,14.60
2023-01-05T10:37:09.900Z,16.27
2023-01-05T10:39:56.728Z,15.43
2023-01-05T10:42:31.561Z,15.33
2023-01-05T10:45:02.718Z,16.13
2023-01-05T10:47:32.555Z,17.93
2023-01-05T10:50:02.289Z,15.70
2023-01-05T10:52:31.157Z,17.10
2023-01-05T10:54:59.709Z,16.40
2023-01-05T10:57:42.671Z,15.80
2023-01-05T11:00:15.547Z,15.07
2023-01-05T11:02:44.590Z,16.80
2023-01-05T11:05:23.438Z,16.00
2023-01-05T11:07:54.324Z,16.33
2023-01-05T11:10:27.583Z,15.67
2023-01-05T11:13:03.534Z,15.60
2023-01-05T11:15:33.606Z,15.83
2023-01-05T11:18:01.783Z,16.20
2023-01-05T11:20:30.448Z,15.50
2023-01-05T11:22:58.773Z,16.93
2023-01-05T11:25:30.797Z,15.97
2023-01-05T11:28:11.252Z,15.50
2023-01-05T11:30:39.802Z,16.10
2023-01-05T11:33:18.494Z,16.70
2023-01-05T11:35:50.382Z,16.27
2023-01-05T11:38:22.814Z,16.77
2023-01-05T11:40:50.785Z,17.73
2023-01-05T11:43:21.252Z,15.37
2023-01-05T11:45:51.328Z,16.43
2023-01-05T11:48:21.160Z,17.93
2023-01-05T11:50:50.537Z,16.27
2023-01-05T11:53:25.957Z,31.33
2023-01-05T11:56:01.099Z,37.50
2023-01-05T11:58:33.275Z,22.03
2023-01-05T12:01:07.576Z,17.73
2023-01-05T12:03:46.145Z,16.53
2023-01-05T12:06:21.645Z,15.40
2023-01-05T12:08:54.670Z,17.10
2023-01-05T12:11:23.611Z,15.63
2023-01-05T12:14:00.199Z,20.27
2023-01-05T12:16:35.179Z,25.70
2023-01-05T12:19:08.956Z,17.00
2023-01-05T12:21:39.512Z,17.20
2023-01-05T12:24:18.247Z,15.53
2023-01-05T12:26:51.306Z,16.53
2023-01-05T12:35:46.446Z,15.20
2023-01-05T12:38:25.833Z,15.63
2023-01-05T12:41:04.951Z,13.97
2023-01-05T12:43:38.438Z,14.20
2023-01-05T12:46:18.441Z,14.00
2023-01-05T12:48:48.374Z,15.20
2023-01-05T12:51:19.307Z,15.17
2023-01-05T12:53:51.852Z,14.53
2023-01-05T12:56:23.757Z,14.70
2023-01-05T12:59:05.522Z,13.30
2023-01-05T13:01:36.431Z,17.20
2023-01-05T13:04:06.115Z,25.43
2023-01-05T13:06:38.844Z,15.23
2023-01-05T13:09:10.956Z,13.87
2023-01-05T13:11:41.969Z,13.23
2023-01-05T13:14:15.176Z,13.83
2023-01-05T13:16:45.619Z,13.67
2023-01-05T13:19:16.232Z,13.73
2023-01-05T13:21:46.086Z,12.13
2023-01-05T13:24:18.183Z,11.47
2023-01-05T13:26:46.122Z,12.27
2023-01-05T13:29:18.129Z,12.07
2023-01-05T13:31:52.504Z,10.90
2023-01-05T13:34:35.271Z,11.90
2023-01-05T13:37:10.275Z,10.43
2023-01-05T13:39:45.033Z,11.00
2023-01-05T13:42:18.667Z,11.47
2023-01-05T13:45:00.153Z,11.13
2023-01-05T13:47:46.241Z,11.33
2023-01-05T13:50:37.988Z,10.73
2023-01-05T13:53:08.261Z,10.33
2023-01-05T13:55:38.750Z,10.17
2023-01-05T13:58:07.620Z,9.60
2023-01-05T14:00:37.165Z,9.03
2023-01-05T14:03:09.018Z,8.33
2023-01-05T14:05:42.399Z,8.53
2023-01-05T14:08:19.068Z,8.70
2023-01-05T14:11:07.047Z,9.13
2023-01-05T14:13:48.588Z,9.67
2023-01-05T14:16:35.405Z,9.50
2023-01-05T14:19:12.896Z,8.77
2023-01-05T14:22:00.354Z,8.53
2023-01-05T14:24:30.009Z,8.30
2023-01-05T14:27:02.866Z,9.33
2023-01-05T14:32:21.577Z,8.03
2023-01-05T14:34:52.257Z,8.00
2023-01-05T14:37:23.401Z,9.10
2023-01-05T14:39:54.821Z,8.10
2023-01-05T14:42:29.757Z,9.50
2023-01-05T14:45:00.470Z,8.93
2023-01-05T14:47:36.510Z,8.40
2023-01-05T14:50:07.392Z,7.77
2023-01-05T14:52:55.238Z,7.87
2023-01-05T14:55:37.746Z,7.83
2023-01-05T14:58:07.299Z,8.30
2023-01-05T15:00:40.749Z,9.23
2023-01-05T15:03:33.548Z,8.53
2023-01-05T15:06:07.804Z,7.67
2023-01-05T15:09:10.542Z,6.77
2023-01-05T15:11:53.513Z,7.30
2023-01-05T15:14:35.442Z,6.77
2023-01-05T15:17:24.559Z,6.60
2023-01-05T15:20:03.218Z,6.83
2023-01-05T15:22:41.898Z,6.90
2023-01-05T15:25:35.220Z,7.53
2023-01-05T15:28:27.240Z,5.77
2023-01-05T15:31:10.151Z,6.93
2023-01-05T15:33:41.888Z,8.20
2023-01-05T15:36:16.774Z,6.97
2023-01-05T15:38:47.623Z,6.47
2023-01-05T15:41:17.949Z,6.77
2023-01-05T15:43:45.966Z,6.97
2023-01-05T15:46:18.883Z,6.67
2023-01-05T15:48:48.181Z,6.93
2023-01-05T15:51:23.708Z,7.20
2023-01-05T15:53:57.014Z,6.50
2023-01-05T15:56:27.363Z,6.57
2023-01-05T15:58:55.762Z,6.73
2023-01-05T16:01:23.907Z,7.53
2023-01-05T16:03:52.228Z,6.70
2023-01-05T16:06:21.411Z,7.90
2023-01-05T16:08:50.497Z,7.20
2023-01-05T16:11:25.520Z,6.70
2023-01-05T16:13:56.325Z,6.90
2023-01-05T16:16:50.688Z,6.63
2023-01-05T16:19:15.080Z,6.80
2023-01-05T16:21:44.447Z,6.53
2023-01-05T16:24:16.977Z,6.13
2023-01-05T16:26:46.411Z,8.33
2023-01-05T16:29:21.536Z,6.40
2023-01-05T16:31:56.864Z,7.13
2023-01-05T16:34:27.759Z,6.70
2023-01-05T16:37:02.567Z,6.67
2023-01-05T16:39:33.943Z,7.07
2023-01-05T16:42:21.442Z,6.90
2023-01-05T16:44:55.822Z,6.00
2023-01-05T16:47:34.924Z,6.57
2023-01-05T16:50:07.979Z,6.10
2023-01-05T16:52:46.008Z,6.93
2023-01-05T16:55:28.227Z,6.53
2023-01-05T16:57:58.248Z,6.83
2023-01-05T17:00:37.213Z,8.97
2023-01-05T17:03:25.327Z,7.17
2023-01-05T17:05:53.806Z,8.03
2023-01-05T17:08:22.763Z,7.53
2023-01-05T17:10:51.653Z,7.33
2023-01-05T17:13:22.513Z,6.93
2023-01-05T17:15:51.464Z,7.30
2023-01-05T17:20:51.431Z,7.03
2023-01-05T17:23:21.850Z,7.93
2023-01-05T17:25:50.321Z,7.43
2023-01-05T17:28:18.337Z,7.93
2023-01-05T17:30:47.790Z,7.10
2023-01-05T17:33:15.781Z,7.57
2023-01-05T17:35:44.062Z,7.20
2023-01-05T17:38:12.559Z,7.60
2023-01-05T17:40:40.917Z,7.63
2023-01-05T17:43:08.946Z,7.20
2023-01-05T17:45:39.433Z,7.30
2023-01-05T17:48:09.083Z,8.60
2023-01-05T17:50:37.028Z,7.83
2023-01-05T17:53:05.813Z,9.43
2023-01-05T17:55:33.910Z,8.70
2023-01-05T17:58:01.965Z,7.90
2023-01-05T18:00:30.901Z,8.13
2023-01-05T18:02:58.847Z,9.37
2023-01-05T18:05:28.960Z,8.20
2023-01-05T18:07:57.105Z,7.97
2023-01-05T18:10:27.017Z,7.13
2023-01-05T18:12:57.001Z,7.73
2023-01-05T18:17:57.565Z,7.60
2023-01-05T18:20:25.564Z,7.30
2023-01-05T18:22:54.939Z,7.13
2023-01-05T18:25:23.037Z,6.50
2023-01-05T18:27:50.973Z,6.70
2023-01-05T18:30:19.148Z,7.00
2023-01-05T18:32:47.123Z,8.67
2023-01-05T18:35:15.113Z,7.13
2023-01-05T18:37:43.127Z,7.70
2023-01-05T18:40:13.489Z,6.77
2023-01-05T18:42:41.504Z,7.53
2023-01-05T18:45:19.574Z,6.93
2023-01-05T18:47:56.492Z,5.80
2023-01-05T18:50:24.493Z,5.93
2023-01-05T18:52:52.498Z,6.07
2023-01-05T18:55:21.905Z,6.27
2023-01-05T18:57:50.002Z,6.07
2023-01-05T19:00:18.055Z,6.03
2023-01-05T19:02:46.008Z,5.70
2023-01-05T19:05:13.966Z,5.37
2023-01-05T19:07:41.956Z,5.23
2023-01-05T19:10:10.149Z,4.70
2023-01-05T19:12:39.472Z,5.40
2023-01-05T19:15:07.929Z,5.50
2023-01-05T19:17:35.883Z,5.87
2023-01-05T19:20:03.879Z,4.90
2023-01-05T19:22:31.891Z,5.07
2023-01-05T19:24:59.880Z,4.57
2023-01-05T19:27:28.154Z,5.03
2023-01-05T19:29:57.609Z,5.47
2023-01-05T19:32:25.589Z,5.40
2023-01-05T19:34:53.537Z,4.97
2023-01-05T19:37:21.520Z,4.90
2023-01-05T19:39:49.467Z,5.10
2023-01-05T19:42:17.524Z,4.93
2023-01-05T19:44:46.864Z,4.13
2023-01-05T19:47:16.256Z,4.37
2023-01-05T19:49:44.186Z,4.50
2023-01-05T19:52:14.013Z,4.77
2023-01-05T19:54:41.998Z,4.90
2023-01-05T19:57:09.937Z,4.93
2023-01-05T19:59:37.961Z,5.10
2023-01-05T20:02:06.309Z,4.73
2023-01-05T20:04:36.044Z,4.37
2023-01-05T20:07:04.563Z,5.03
2023-01-05T20:09:35.565Z,5.77
2023-01-05T20:12:13.818Z,5.17
2023-01-05T20:14:43.129Z,5.53
2023-01-05T20:17:11.826Z,5.43
2023-01-05T20:19:41.446Z,5.30
2023-01-05T20:22:13.885Z,5.90
2023-01-05T20:24:42.623Z,5.47
2023-01-05T20:27:12.083Z,5.13
2023-01-05T20:29:40.836Z,4.87
2023-01-05T20:32:09.818Z,5.20
2023-01-05T20:34:39.327Z,5.60
2023-01-05T20:37:10.420Z,5.53
2023-01-05T20:39:38.963Z,4.90
2023-01-05T20:42:10.833Z,5.00
2023-01-05T20:44:39.648Z,5.23
2023-01-05T20:47:09.387Z,5.10
2023-01-05T20:49:38.236Z,4.90
2023-01-05T20:52:06.714Z,5.00
2023-01-05T20:54:36.482Z,5.53
2023-01-05T20:57:04.731Z,5.80
2023-01-05T20:59:33.895Z,5.53
2023-01-05T21:02:02.706Z,5.97
2023-01-05T21:04:32.016Z,6.10
2023-01-05T21:07:01.337Z,5.60
2023-01-05T21:09:30.404Z,5.93
2023-01-05T21:12:00.204Z,6.00
2023-01-05T21:14:28.361Z,5.53
2023-01-05T21:16:56.637Z,5.70
2023-01-05T21:19:25.130Z,6.07
2023-01-05T21:21:53.948Z,6.07
2023-01-05T21:24:22.588Z,6.10
2023-01-05T21:26:50.595Z,5.90
2023-01-05T21:29:22.292Z,5.20
2023-01-05T21:31:50.633Z,5.80
2023-01-05T21:34:18.740Z,6.17
2023-01-05T21:36:48.640Z,6.10
2023-01-05T21:39:20.012Z,6.03
2023-01-05T21:42:05.754Z,6.20
2023-01-05T21:44:35.526Z,6.10
2023-01-05T21:47:05.722Z,6.53
2023-01-05T21:49:34.703Z,6.33
2023-01-05T21:52:20.309Z,5.73
2023-01-05T21:55:05.790Z,5.93
2023-01-05T21:57:33.835Z,6.20
2023-01-05T22:00:03.235Z,6.17
2023-01-05T22:02:31.169Z,5.93
2023-01-05T22:04:59.124Z,6.70
2023-01-05T22:07:27.301Z,6.20
2023-01-05T22:09:55.242Z,5.97
2023-01-05T22:12:23.232Z,6.73
2023-01-05T22:14:51.515Z,6.23
2023-01-05T22:17:20.885Z,5.80
2023-01-05T22:19:48.940Z,5.37
2023-01-05T22:22:16.978Z,6.93
2023-01-05T22:24:44.947Z,6.37
2023-01-05T22:27:13.106Z,6.03
2023-01-05T22:29:41.087Z,6.17
2023-01-05T22:32:09.029Z,5.27
2023-01-05T22:34:43.852Z,5.60
2023-01-05T22:37:11.806Z,6.03
2023-01-05T22:39:39.846Z,5.63
2023-01-05T22:42:08.129Z,6.17
2023-01-05T22:44:36.229Z,5.97
2023-01-05T22:47:04.205Z,6.77
2023-01-05T22:49:32.203Z,6.57
2023-01-05T22:52:01.574Z,7.93
2023-01-05T22:54:29.725Z,7.10
2023-01-05T22:56:57.729Z,6.80
2023-01-05T22:59:27.803Z,6.70
2023-01-05T23:01:56.497Z,7.27
2023-01-05T23:04:24.534Z,7.07
2023-01-05T23:06:52.550Z,6.80
2023-01-05T23:09:22.197Z,7.20
2023-01-05T23:11:50.222Z,6.90
2023-01-05T23:14:19.281Z,6.83
2023-01-05T23:16:47.767Z,7.33
2023-01-05T23:19:17.135Z,7.63
2023-01-05T23:21:45.205Z,8.30
2023-01-05T23:24:14.429Z,8.10
2023-01-05T23:26:43.869Z,7.43
2023-01-05T23:29:11.813Z,7.53
2023-01-05T23:31:39.935Z,7.43
2023-01-05T23:34:07.884Z,7.53
2023-01-05T23:36:35.862Z,7.90
2023-01-05T23:39:03.858Z,8.40
2023-01-05T23:41:31.789Z,7.93
2023-01-05T23:44:01.235Z,8.60
2023-01-05T23:46:29.269Z,7.37
2023-01-05T23:48:57.222Z,8.50
2023-01-05T23:51:25.215Z,7.93
2023-01-05T23:53:53.816Z,7.77
2023-01-05T23:56:22.986Z,7.80
2023-01-05T23:58:55.199Z,8.37
